Castlederg, United Kingdom
Current Conditions -  °F | °C
As of 6:20 AM on Friday 31 Oct 2014 (Local Time) from EGAE Reporting Station
Rain Showers Rain Showers  
Wind Chill: 17°   Ceiling: Unl
Heat Index: 17°   Visibility: 6mi
Dew Point: 14°   Wind: 20mph
Humidity: 82%   Direction: 180°S
Pressure: 29.59"   Gusts: 32mph
Location:  54.7°N, 7.6°W
Report Text: EGAE 310620Z 18017G28KT 9999 -SHRA SCT032 17/14 Q1002
Loading
Personal Weather Stations






























Interactive Weather Map
Tropical Storm Tracking
New forecast layout! Learn more

10-Day Weather Forecast

Advertisements
Track Severe Weather on mobile